Time;durP1;ratioP1;P1;durP2;ratioP2;P2;SDS_P1;SDS_P2;PMS_P1;PMS_P2;Temp;Humidity;BMP_temperature;BMP_pressure;BME280_temperature;BME280_humidity;BME280_pressure;Samples;Min_cycle;Max_cycle;Signal;HPM_P1;HPM_P2
2022/07/20 00:01:27;;;;;;;3.60;3.10;;;19.10;90.80;;;;;;6191919;23;20487;-80
2022/07/20 00:03:52;;;;;;;5.05;3.33;;;19.00;91.20;;;;;;6192097;23;20065;-79
2022/07/20 00:06:18;;;;;;;5.00;3.53;;;18.90;91.30;;;;;;6192719;23;20008;-79
2022/07/20 00:11:27;;;;;;;4.45;3.30;;;18.80;91.90;;;;;;6217502;23;20407;-79
2022/07/20 00:13:59;;;;;;;4.45;3.47;;;18.70;91.90;;;;;;6192031;23;20024;-79
2022/07/20 00:16:27;;;;;;;5.50;3.00;;;18.60;92.00;;;;;;6192713;23;20015;-79
2022/07/20 00:18:53;;;;;;;4.13;3.40;;;18.60;91.90;;;;;;6191399;23;20337;-79
2022/07/20 00:21:19;;;;;;;7.10;3.42;;;18.50;92.30;;;;;;6217039;23;20020;-81
2022/07/20 00:23:45;;;;;;;4.15;2.88;;;18.50;92.20;;;;;;6217011;23;20513;-79
2022/07/20 00:26:10;;;;;;;4.47;3.50;;;18.40;92.50;;;;;;6217566;23;20083;-79
2022/07/20 00:28:36;;;;;;;4.22;3.50;;;18.40;92.50;;;;;;6217181;23;20091;-81
2022/07/20 00:31:03;;;;;;;4.88;3.80;;;18.40;92.60;;;;;;6217005;23;20427;-78
2022/07/20 00:33:29;;;;;;;4.10;3.33;;;18.30;92.40;;;;;;6217285;23;20008;-79
2022/07/20 00:35:54;;;;;;;4.45;3.55;;;18.30;92.30;;;;;;6217580;23;20012;-79
2022/07/20 00:38:20;;;;;;;5.97;3.60;;;18.40;91.80;;;;;;6192365;23;20015;-79
2022/07/20 00:40:45;;;;;;;4.50;3.20;;;18.50;91.90;;;;;;6216032;23;20341;-79
2022/07/20 00:43:11;;;;;;;5.53;3.67;;;18.60;91.60;;;;;;6216488;23;20120;-79
2022/07/20 00:45:37;;;;;;;3.85;3.10;;;18.60;91.60;;;;;;6192355;23;20019;-78
2022/07/20 00:48:03;;;;;;;3.95;3.33;;;18.60;91.50;;;;;;6217552;23;20004;-79
2022/07/20 00:50:28;;;;;;;4.60;3.45;;;18.60;91.90;;;;;;6191474;23;20012;-79
2022/07/20 00:52:54;;;;;;;4.00;3.60;;;18.60;91.90;;;;;;6192070;23;20018;-80
2022/07/20 00:55:21;;;;;;;4.93;3.95;;;18.50;92.10;;;;;;6217084;23;20008;-79
2022/07/20 00:57:46;;;;;;;3.95;3.33;;;18.40;92.00;;;;;;6192158;23;20019;-80
2022/07/20 01:00:13;;;;;;;5.93;3.58;;;18.40;92.00;;;;;;6216233;23;20004;-79
2022/07/20 01:02:39;;;;;;;3.78;3.13;;;18.40;91.70;;;;;;6216886;23;20016;-79
2022/07/20 01:05:13;;;;;;;5.00;3.47;;;18.40;91.80;;;;;;6217367;23;20012;-79
2022/07/20 01:07:40;;;;;;;5.00;3.55;;;18.30;91.80;;;;;;6217447;23;20023;-79
2022/07/20 01:10:07;;;;;;;5.15;3.50;;;18.30;92.00;;;;;;6191172;23;20012;-81
2022/07/20 01:12:32;;;;;;;3.78;3.30;;;18.30;92.20;;;;;;6190732;23;20012;-79
2022/07/20 01:14:58;;;;;;;5.10;3.53;;;18.30;91.90;;;;;;6193691;23;20012;-79
2022/07/20 01:17:23;;;;;;;5.50;3.60;;;18.20;91.90;;;;;;6193921;23;20027;-79
2022/07/20 01:19:49;;;;;;;3.92;3.53;;;18.30;92.00;;;;;;6218384;23;20008;-79
2022/07/20 01:22:14;;;;;;;4.63;3.70;;;18.20;92.00;;;;;;6218614;23;20020;-79
2022/07/20 01:24:40;;;;;;;4.63;3.35;;;18.20;92.40;;;;;;6219475;23;20065;-78
2022/07/20 01:27:06;;;;;;;3.75;3.25;;;18.20;92.80;;;;;;6194000;23;20511;-79
2022/07/20 01:29:32;;;;;;;4.15;3.65;;;18.20;93.00;;;;;;6219240;22;20014;-79
2022/07/20 01:31:57;;;;;;;6.63;3.70;;;18.00;93.00;;;;;;6193298;23;20449;-79
2022/07/20 01:34:23;;;;;;;4.88;3.38;;;18.00;93.30;;;;;;6218865;23;20020;-79
2022/07/20 01:36:48;;;;;;;5.90;3.45;;;17.90;93.20;;;;;;6218738;23;20035;-79
2022/07/20 01:39:14;;;;;;;4.70;3.42;;;17.90;93.10;;;;;;6218663;22;20008;-79
2022/07/20 01:41:40;;;;;;;4.13;3.72;;;17.90;93.20;;;;;;6218115;23;20467;-78
2022/07/20 01:44:06;;;;;;;4.43;3.30;;;17.90;93.40;;;;;;6219150;23;20448;-79
2022/07/20 01:46:31;;;;;;;6.10;3.63;;;17.80;93.40;;;;;;6193176;23;20095;-78
2022/07/20 01:48:57;;;;;;;4.40;3.50;;;17.80;93.50;;;;;;6218354;23;20008;-79
2022/07/20 01:51:23;;;;;;;5.05;3.90;;;17.80;93.80;;;;;;6218447;23;20012;-78
2022/07/20 01:53:48;;;;;;;4.50;3.97;;;17.70;93.80;;;;;;6193785;23;20012;-78
2022/07/20 01:56:14;;;;;;;5.53;4.10;;;17.60;93.50;;;;;;6218599;23;20073;-79
2022/07/20 01:58:39;;;;;;;4.35;3.47;;;17.60;93.70;;;;;;6218783;23;20004;-78
2022/07/20 02:01:06;;;;;;;5.20;3.50;;;17.60;93.80;;;;;;6192818;23;20008;-78
2022/07/20 02:03:31;;;;;;;4.43;3.75;;;17.60;94.00;;;;;;6218707;23;20016;-79
2022/07/20 02:05:57;;;;;;;4.05;3.65;;;17.60;93.90;;;;;;6193928;23;20023;-79
2022/07/20 02:08:25;;;;;;;4.75;3.97;;;17.50;93.60;;;;;;6218370;23;20464;-79
2022/07/20 02:10:52;;;;;;;5.55;4.32;;;17.50;93.60;;;;;;6193262;23;20012;-79
2022/07/20 02:13:18;;;;;;;4.05;3.67;;;17.50;93.60;;;;;;6218152;23;20083;-78
2022/07/20 02:18:28;;;;;;;5.10;4.07;;;17.50;93.70;;;;;;6218683;23;20027;-79
2022/07/20 02:20:53;;;;;;;4.63;3.63;;;17.50;94.00;;;;;;6218255;23;20345;-78
2022/07/20 02:23:19;;;;;;;4.68;4.05;;;17.30;94.30;;;;;;6218607;23;20512;-79
2022/07/20 02:25:45;;;;;;;5.57;3.30;;;17.40;94.10;;;;;;6218605;23;20083;-79
2022/07/20 02:28:10;;;;;;;5.20;3.78;;;17.30;94.50;;;;;;6218311;23;20008;-78
2022/07/20 02:30:36;;;;;;;7.25;3.83;;;17.30;94.60;;;;;;6218228;23;20066;-78
2022/07/20 02:33:02;;;;;;;4.68;3.70;;;17.20;94.90;;;;;;6217751;23;20468;-79
2022/07/20 02:35:28;;;;;;;5.97;4.00;;;17.20;95.20;;;;;;6218735;23;20008;-79
2022/07/20 02:37:54;;;;;;;6.07;3.80;;;17.10;95.40;;;;;;6217706;23;20474;-79
2022/07/20 02:40:19;;;;;;;4.45;3.78;;;17.10;95.70;;;;;;6193485;23;20090;-78
2022/07/20 02:42:45;;;;;;;5.82;4.10;;;17.10;95.80;;;;;;6192694;23;20035;-80
2022/07/20 02:45:10;;;;;;;4.10;3.70;;;17.00;96.20;;;;;;6218205;23;20012;-78
2022/07/20 02:47:46;;;;;;;5.95;3.92;;;17.00;96.40;;;;;;6218157;23;20008;-79
2022/07/20 02:50:13;;;;;;;6.43;4.20;;;17.00;96.90;;;;;;6193000;23;20074;-79
2022/07/20 02:52:40;;;;;;;4.82;4.30;;;17.00;96.90;;;;;;6217725;23;20023;-79
2022/07/20 02:55:07;;;;;;;6.35;4.25;;;16.90;97.40;;;;;;6218511;23;20027;-79
2022/07/20 02:57:33;;;;;;;5.93;3.92;;;16.90;97.50;;;;;;6217599;23;20050;-79
2022/07/20 02:59:58;;;;;;;5.68;3.92;;;16.80;97.80;;;;;;6217150;23;20380;-79
2022/07/20 03:02:24;;;;;;;4.75;3.55;;;16.80;98.30;;;;;;6192578;23;20066;-79
2022/07/20 03:04:50;;;;;;;5.80;4.40;;;16.80;98.60;;;;;;6217559;23;20008;-80
2022/07/20 03:07:16;;;;;;;6.25;4.10;;;16.70;99.10;;;;;;6193030;23;20020;-78
2022/07/20 03:09:42;;;;;;;6.93;4.43;;;16.70;99.30;;;;;;6193041;23;20016;-80
2022/07/20 03:12:08;;;;;;;5.22;4.10;;;16.70;99.20;;;;;;6219066;23;20095;-78
2022/07/20 03:14:34;;;;;;;4.93;4.10;;;16.60;99.70;;;;;;6198247;23;20360;-78
2022/07/20 03:17:00;;;;;;;6.60;4.60;;;16.60;99.90;;;;;;6198060;23;20035;-78
2022/07/20 03:19:25;;;;;;;4.75;4.18;;;16.60;99.90;;;;;;6197472;22;20008;-78
2022/07/20 03:21:51;;;;;;;5.50;3.95;;;16.60;99.90;;;;;;6197876;23;20066;-78
2022/07/20 03:24:17;;;;;;;6.18;4.22;;;16.60;99.90;;;;;;6223941;23;20065;-78
2022/07/20 03:26:42;;;;;;;9.18;4.90;;;16.50;99.90;;;;;;6197487;23;20433;-78
2022/07/20 03:29:08;;;;;;;5.55;4.40;;;16.50;99.90;;;;;;6223979;22;20012;-78
2022/07/20 03:31:34;;;;;;;5.00;4.22;;;16.50;99.90;;;;;;6198314;23;20063;-78
2022/07/20 03:33:59;;;;;;;7.07;4.38;;;16.50;99.90;;;;;;6197957;23;20091;-78
2022/07/20 03:36:25;;;;;;;6.30;4.40;;;16.50;99.90;;;;;;6197696;23;20012;-78
2022/07/20 03:38:51;;;;;;;5.18;4.50;;;16.50;99.90;;;;;;6200869;23;20036;-78
2022/07/20 03:41:17;;;;;;;7.60;4.32;;;16.50;99.90;;;;;;6200768;23;20016;-79
2022/07/20 03:43:44;;;;;;;6.28;4.03;;;16.50;99.90;;;;;;6199477;23;20008;-78
2022/07/20 03:46:10;;;;;;;4.55;4.15;;;16.50;99.90;;;;;;6218375;23;20079;-78
2022/07/20 03:48:37;;;;;;;5.55;4.35;;;16.50;99.90;;;;;;6193439;23;20425;-78
2022/07/20 03:51:03;;;;;;;4.78;4.20;;;16.50;99.90;;;;;;6219203;23;20464;-78
2022/07/20 03:53:29;;;;;;;10.02;4.53;;;16.50;99.90;;;;;;6194239;23;20689;-78
2022/07/20 03:55:54;;;;;;;7.15;4.65;;;16.50;99.90;;;;;;6193509;23;20016;-78
2022/07/20 03:58:20;;;;;;;5.18;4.65;;;16.50;99.90;;;;;;6193080;23;20022;-78
2022/07/20 04:00:46;;;;;;;4.88;4.38;;;16.50;99.90;;;;;;6218905;23;20008;-78
2022/07/20 04:03:12;;;;;;;5.70;4.50;;;16.50;99.90;;;;;;6218561;23;20444;-78
2022/07/20 04:05:37;;;;;;;7.25;4.68;;;16.50;99.90;;;;;;6194233;23;20008;-78
2022/07/20 04:08:03;;;;;;;6.80;4.50;;;16.50;99.90;;;;;;6219833;23;20012;-78
2022/07/20 04:10:29;;;;;;;7.70;5.18;;;16.60;99.90;;;;;;6193804;23;20012;-78
2022/07/20 04:12:54;;;;;;;5.60;4.60;;;16.60;99.90;;;;;;6194091;23;20467;-78
2022/07/20 04:15:20;;;;;;;6.82;4.25;;;16.70;99.90;;;;;;6218984;23;20031;-78
2022/07/20 04:17:46;;;;;;;7.13;4.53;;;16.70;99.90;;;;;;6194161;23;20035;-78
2022/07/20 04:20:12;;;;;;;6.45;4.50;;;16.70;99.90;;;;;;6218584;23;20004;-78
2022/07/20 04:22:37;;;;;;;6.80;5.10;;;16.70;99.90;;;;;;6219448;23;20019;-78
2022/07/20 04:25:03;;;;;;;6.43;5.10;;;16.80;99.90;;;;;;6193336;23;20008;-78
2022/07/20 04:27:29;;;;;;;7.88;4.50;;;16.80;99.90;;;;;;6194228;23;20105;-79
2022/07/20 04:29:54;;;;;;;7.38;5.20;;;16.80;99.90;;;;;;6220008;23;20451;-79
2022/07/20 04:32:20;;;;;;;7.72;4.70;;;17.00;99.90;;;;;;6219733;23;20008;-79
2022/07/20 04:34:45;;;;;;;5.40;4.68;;;17.00;99.90;;;;;;6218359;23;20016;-79
2022/07/20 04:37:12;;;;;;;7.85;4.63;;;17.00;99.90;;;;;;6220455;23;20048;-79
2022/07/20 04:39:37;;;;;;;7.70;4.57;;;17.10;99.90;;;;;;6219123;23;20015;-79
2022/07/20 04:42:03;;;;;;;10.00;4.90;;;17.10;99.90;;;;;;6219661;23;20012;-78
2022/07/20 04:44:29;;;;;;;7.32;5.28;;;17.20;99.90;;;;;;6193716;23;20391;-78
2022/07/20 04:46:55;;;;;;;9.25;5.05;;;17.30;99.90;;;;;;6219683;23;20019;-78
2022/07/20 04:49:20;;;;;;;8.15;4.80;;;17.50;99.90;;;;;;6195072;22;20016;-78
2022/07/20 04:51:46;;;;;;;5.90;5.30;;;17.70;99.90;;;;;;6194378;23;20035;-78
2022/07/20 04:54:12;;;;;;;5.72;5.13;;;17.80;99.90;;;;;;6219341;23;20016;-78
2022/07/20 04:56:37;;;;;;;6.93;4.65;;;18.10;99.90;;;;;;6219368;23;20008;-78
2022/07/20 04:59:04;;;;;;;5.70;5.10;;;18.40;99.90;;;;;;6220285;23;20480;-78
2022/07/20 05:01:30;;;;;;;8.07;5.38;;;18.60;99.90;;;;;;6219671;23;20012;-79
2022/07/20 05:03:55;;;;;;;6.30;4.82;;;18.80;99.90;;;;;;6194572;23;20069;-79
2022/07/20 05:06:21;;;;;;;8.60;4.93;;;19.10;99.90;;;;;;6195223;23;20008;-79
2022/07/20 05:08:47;;;;;;;6.70;4.75;;;19.30;99.90;;;;;;6220265;23;20094;-79
2022/07/20 05:11:13;;;;;;;5.70;4.53;;;19.50;99.90;;;;;;6219026;23;20077;-79
2022/07/20 05:13:39;;;;;;;6.65;5.00;;;19.80;99.90;;;;;;6195737;23;20027;-79
2022/07/20 05:16:05;;;;;;;6.40;5.03;;;20.10;99.70;;;;;;6220849;23;20012;-79
2022/07/20 05:18:31;;;;;;;6.90;4.88;;;20.30;99.10;;;;;;6221525;23;20452;-79
2022/07/20 05:20:57;;;;;;;5.30;4.00;;;20.40;98.70;;;;;;6195052;23;20062;-79
2022/07/20 05:23:23;;;;;;;6.53;4.53;;;20.70;98.10;;;;;;6220949;23;20127;-79
2022/07/20 05:25:49;;;;;;;4.85;4.10;;;20.80;97.50;;;;;;6195585;23;20016;-79
2022/07/20 05:28:20;;;;;;;5.88;3.90;;;21.00;96.80;;;;;;6221738;23;20056;-79
2022/07/20 05:30:47;;;;;;;5.88;4.45;;;21.20;96.50;;;;;;6221106;23;20019;-79
2022/07/20 05:33:13;;;;;;;5.65;4.00;;;21.30;96.00;;;;;;6196370;23;20079;-79
2022/07/20 05:35:40;;;;;;;6.50;4.72;;;21.50;95.40;;;;;;6195878;23;20346;-79
2022/07/20 05:38:05;;;;;;;4.63;3.75;;;21.60;95.00;;;;;;6196059;23;20009;-79
2022/07/20 05:40:31;;;;;;;6.57;4.25;;;21.70;94.70;;;;;;6197005;23;20058;-79
2022/07/20 05:42:57;;;;;;;5.53;4.35;;;21.80;94.60;;;;;;6221246;23;20012;-79
2022/07/20 05:45:22;;;;;;;4.75;4.18;;;21.90;94.30;;;;;;6197648;23;20522;-79
2022/07/20 05:47:48;;;;;;;4.80;4.10;;;22.00;93.90;;;;;;6196913;23;20019;-80
2022/07/20 05:50:13;;;;;;;6.10;4.60;;;22.00;93.60;;;;;;6221817;23;20016;-79
2022/07/20 05:52:39;;;;;;;7.30;4.18;;;22.10;93.30;;;;;;6196907;23;20449;-79
2022/07/20 05:55:05;;;;;;;4.63;4.15;;;22.30;92.80;;;;;;6222997;23;20077;-79
2022/07/20 05:57:31;;;;;;;7.07;4.63;;;22.50;92.50;;;;;;6198361;23;20063;-79
2022/07/20 05:59:57;;;;;;;6.30;4.72;;;22.70;91.80;;;;;;6196846;23;20332;-79
2022/07/20 06:02:22;;;;;;;4.97;4.40;;;22.80;90.80;;;;;;6198485;23;20019;-79
2022/07/20 06:04:48;;;;;;;5.15;4.53;;;22.80;90.30;;;;;;6199334;23;20020;-79
2022/07/20 06:07:13;;;;;;;5.72;4.60;;;22.80;90.00;;;;;;6225553;23;20016;-79
2022/07/20 06:09:39;;;;;;;6.07;4.82;;;22.80;89.10;;;;;;6225766;23;20016;-79
2022/07/20 06:12:05;;;;;;;6.13;4.25;;;22.70;88.50;;;;;;6200001;23;20019;-79
2022/07/20 06:14:30;;;;;;;5.90;4.07;;;22.60;88.60;;;;;;6200883;23;20063;-79
2022/07/20 06:16:56;;;;;;;6.05;4.68;;;22.60;89.30;;;;;;6201484;23;20020;-79
2022/07/20 06:19:22;;;;;;;5.97;4.63;;;22.50;89.10;;;;;;6219513;22;20019;-79
2022/07/20 06:21:47;;;;;;;4.95;4.45;;;22.50;88.40;;;;;;6195315;23;20031;-79
2022/07/20 06:24:14;;;;;;;7.63;5.00;;;22.50;87.70;;;;;;6219452;23;20106;-79
2022/07/20 06:26:40;;;;;;;6.15;5.47;;;22.50;87.80;;;;;;6220302;23;20008;-79
2022/07/20 06:29:05;;;;;;;7.32;5.35;;;22.50;87.80;;;;;;6195281;23;20510;-79
2022/07/20 06:31:31;;;;;;;8.00;5.40;;;22.50;87.60;;;;;;6194833;23;20099;-79
2022/07/20 06:33:57;;;;;;;8.00;5.55;;;22.50;87.70;;;;;;6194982;23;20012;-79
2022/07/20 06:36:22;;;;;;;8.30;6.18;;;22.50;87.90;;;;;;6194767;23;20344;-79
2022/07/20 06:38:48;;;;;;;7.40;5.68;;;22.60;87.60;;;;;;6195282;23;20085;-79
2022/07/20 06:41:13;;;;;;;9.25;6.10;;;22.60;87.30;;;;;;6219406;23;20020;-82
2022/07/20 06:43:39;;;;;;;10.57;6.18;;;22.70;87.90;;;;;;6194580;23;20225;-78
2022/07/20 06:46:05;;;;;;;9.35;7.22;;;22.70;88.20;;;;;;6195030;23;20079;-78
2022/07/20 06:48:31;;;;;;;8.02;7.05;;;22.80;89.70;;;;;;6193085;23;20008;-77
2022/07/20 06:50:56;;;;;;;10.73;8.32;;;22.80;90.00;;;;;;6193210;23;20031;-77
2022/07/20 06:53:23;;;;;;;12.00;8.60;;;22.80;90.40;;;;;;6194247;23;20023;-77
2022/07/20 06:55:48;;;;;;;10.13;8.88;;;22.80;90.60;;;;;;6193384;23;20019;-78
2022/07/20 06:58:14;;;;;;;10.30;8.00;;;22.90;90.80;;;;;;6218268;23;20348;-78
2022/07/20 07:00:40;;;;;;;11.07;9.13;;;22.90;90.70;;;;;;6193409;23;20008;-77
2022/07/20 07:03:05;;;;;;;9.40;7.95;;;23.00;91.10;;;;;;6193349;23;20016;-77
2022/07/20 07:05:31;;;;;;;12.50;9.60;;;23.10;91.30;;;;;;6217243;23;20034;-77
2022/07/20 07:07:57;;;;;;;12.48;9.70;;;23.10;91.70;;;;;;6193518;23;20015;-78
2022/07/20 07:10:24;;;;;;;13.45;11.50;;;23.20;92.20;;;;;;6194267;23;20014;-77
2022/07/20 07:12:50;;;;;;;13.15;10.90;;;23.30;92.60;;;;;;6218064;23;20019;-78
2022/07/20 07:15:15;;;;;;;13.73;10.57;;;23.30;92.70;;;;;;6218989;23;20012;-77
2022/07/20 07:17:41;;;;;;;13.32;11.73;;;23.40;93.00;;;;;;6194034;23;20008;-77
2022/07/20 07:20:07;;;;;;;14.32;12.82;;;23.50;93.10;;;;;;6218899;23;20019;-78
2022/07/20 07:22:34;;;;;;;17.23;12.50;;;23.60;93.20;;;;;;6219461;23;20035;-78
2022/07/20 07:25:00;;;;;;;16.45;12.65;;;23.60;93.40;;;;;;6193243;23;20047;-78
2022/07/20 07:27:25;;;;;;;14.57;12.38;;;23.70;93.90;;;;;;6219145;23;20007;-78
2022/07/20 07:29:51;;;;;;;17.17;13.35;;;23.80;94.10;;;;;;6219479;23;20019;-78
2022/07/20 07:32:17;;;;;;;16.90;13.40;;;23.90;94.00;;;;;;6219868;23;20012;-78
2022/07/20 07:34:42;;;;;;;17.60;13.52;;;24.00;94.30;;;;;;6194659;23;20015;-77
2022/07/20 07:37:08;;;;;;;18.15;14.85;;;24.00;94.40;;;;;;6218975;23;20031;-78
2022/07/20 07:39:33;;;;;;;18.77;15.48;;;24.20;94.40;;;;;;6219132;23;20394;-78
2022/07/20 07:41:59;;;;;;;17.70;15.82;;;24.30;95.00;;;;;;6220982;23;20012;-78
2022/07/20 07:44:25;;;;;;;18.10;16.27;;;24.50;95.20;;;;;;6195273;23;20074;-78
2022/07/20 07:46:51;;;;;;;18.90;15.80;;;24.60;95.40;;;;;;6220218;23;20183;-78
2022/07/20 07:49:16;;;;;;;20.38;16.38;;;24.70;95.70;;;;;;6197004;22;20508;-79
2022/07/20 07:51:42;;;;;;;21.67;15.95;;;24.90;96.30;;;;;;6221409;23;20326;-80
2022/07/20 07:54:08;;;;;;;19.08;16.92;;;25.30;96.60;;;;;;6222032;23;20016;-80
2022/07/20 07:56:34;;;;;;;17.67;15.23;;;25.90;96.50;;;;;;6194388;23;20091;-80
2022/07/20 07:59:00;;;;;;;18.77;15.82;;;26.50;95.80;;;;;;6195976;23;20040;-79
2022/07/20 08:01:25;;;;;;;17.55;15.13;;;27.00;94.90;;;;;;6196759;23;20023;-81
2022/07/20 08:03:51;;;;;;;18.23;15.07;;;27.50;94.40;;;;;;6222202;23;20337;-80
2022/07/20 08:06:17;;;;;;;20.33;16.58;;;27.80;94.20;;;;;;6221345;23;20012;-81
2022/07/20 08:08:42;;;;;;;19.52;14.35;;;28.20;93.40;;;;;;6196879;23;20019;-80
2022/07/20 08:11:08;;;;;;;19.67;15.43;;;28.70;92.70;;;;;;6220714;23;20035;-81
2022/07/20 08:13:33;;;;;;;16.83;15.02;;;29.30;91.80;;;;;;6222321;23;20385;-80
2022/07/20 08:15:59;;;;;;;19.15;16.73;;;29.80;90.40;;;;;;6197713;23;20012;-79
2022/07/20 08:18:25;;;;;;;18.75;16.25;;;30.20;88.70;;;;;;6222197;23;20008;-80
2022/07/20 08:20:51;;;;;;;18.70;16.73;;;30.50;85.50;;;;;;6223273;23;20107;-79
2022/07/20 08:23:17;;;;;;;18.70;16.52;;;30.80;83.20;;;;;;6223467;23;20063;-79
2022/07/20 08:25:44;;;;;;;18.75;16.75;;;31.10;79.90;;;;;;6198973;23;20060;-79
2022/07/20 08:28:13;;;;;;;19.25;16.88;;;31.40;79.30;;;;;;6198489;23;20008;-80
2022/07/20 08:30:41;;;;;;;18.67;16.48;;;31.70;78.00;;;;;;6223175;23;20012;-79
2022/07/20 08:33:07;;;;;;;18.40;16.60;;;32.00;75.80;;;;;;6198257;23;20039;-80
2022/07/20 08:35:33;;;;;;;18.83;16.80;;;32.10;74.20;;;;;;6223751;23;20016;-79
2022/07/20 08:37:59;;;;;;;18.55;16.65;;;32.20;72.40;;;;;;6199403;23;20543;-79
2022/07/20 08:40:25;;;;;;;19.70;16.63;;;32.20;71.40;;;;;;6199122;23;20039;-80
2022/07/20 08:42:51;;;;;;;19.65;17.55;;;32.40;69.90;;;;;;6200715;23;20042;-80
2022/07/20 08:45:17;;;;;;;20.20;17.00;;;32.30;68.20;;;;;;6202090;23;20089;-80
2022/07/20 08:47:44;;;;;;;17.38;15.68;;;32.40;67.60;;;;;;6226493;23;20480;-80
2022/07/20 08:50:10;;;;;;;18.45;16.25;;;32.60;67.60;;;;;;6196715;23;20459;-80
2022/07/20 08:52:36;;;;;;;18.20;16.40;;;32.60;66.50;;;;;;6193866;23;20016;-80
2022/07/20 08:55:02;;;;;;;18.42;16.50;;;32.70;65.90;;;;;;6219920;23;20044;-79
2022/07/20 08:57:30;;;;;;;18.48;15.95;;;32.80;65.30;;;;;;6194867;23;20016;-79
2022/07/20 08:59:56;;;;;;;18.45;16.55;;;32.80;64.00;;;;;;6219022;23;20034;-79
2022/07/20 09:02:22;;;;;;;18.98;17.13;;;32.90;63.30;;;;;;6194274;23;20519;-79
2022/07/20 09:04:53;;;;;;;17.50;15.77;;;32.90;63.90;;;;;;6219571;23;20015;-80
2022/07/20 09:07:40;;;;;;;17.73;15.77;;;33.00;62.20;;;;;;6220374;23;20012;-80
2022/07/20 09:10:11;;;;;;;16.33;14.70;;;33.10;62.30;;;;;;6219662;23;20071;-79
2022/07/20 09:20:10;;;;;;;;;;;;;;;;;;;;;
2022/07/20 09:23:07;;;;;;;;;;;;;;;;;;;;;
2022/07/20 09:26:31;;;;;;;;;;;;;;;;;;;;;
2022/07/20 09:56:10;;;;;;;8.25;7.28;;;34.00;56.70;;;;;;6217152;22;20039;-80
2022/07/20 09:59:56;;;;;;;;;;;;;;;;;;;;;
2022/07/20 10:03:47;;;;;;;11.13;7.70;;;34.00;54.70;;;;;;6149236;23;20018;-80
2022/07/20 10:07:14;;;;;;;;;;;;;;;;;;;;;
2022/07/20 10:09:48;;;;;;;8.40;7.57;;;34.20;55.90;;;;;;6229312;22;20016;-79
2022/07/20 10:12:13;;;;;;;9.60;8.15;;;34.30;55.80;;;;;;6226236;22;20004;-81
2022/07/20 10:14:41;;;;;;;10.35;7.68;;;34.40;55.10;;;;;;6254815;22;20096;-79
2022/07/20 10:17:07;;;;;;;8.50;7.70;;;34.50;54.70;;;;;;6256560;22;20088;-78
2022/07/20 10:19:47;;;;;;;9.15;8.13;;;34.50;54.70;;;;;;6224625;23;20452;-78
2022/07/20 10:22:13;;;;;;;9.50;7.35;;;34.70;54.10;;;;;;6220280;23;20013;-78
2022/07/20 10:24:42;;;;;;;9.43;8.00;;;34.80;54.90;;;;;;6222248;23;20060;-77
2022/07/20 10:27:08;;;;;;;9.15;7.55;;;34.80;54.00;;;;;;6195866;23;20019;-79
2022/07/20 10:29:39;;;;;;;8.48;7.55;;;34.80;53.50;;;;;;6225380;23;20020;-78
2022/07/20 10:32:23;;;;;;;9.10;7.43;;;34.70;53.30;;;;;;6223729;23;20383;-78
2022/07/20 10:35:00;;;;;;;10.23;7.10;;;34.70;53.00;;;;;;6218572;23;20018;-78
2022/07/20 10:37:40;;;;;;;8.75;6.90;;;34.60;51.90;;;;;;6220334;23;20020;-78
2022/07/20 10:40:09;;;;;;;8.00;6.82;;;34.40;51.90;;;;;;6194585;23;20419;-78
2022/07/20 10:42:40;;;;;;;8.00;7.20;;;34.40;52.40;;;;;;6220884;23;20016;-78
2022/07/20 10:45:24;;;;;;;7.75;6.95;;;34.40;51.20;;;;;;6220188;23;20008;-78
2022/07/20 10:47:53;;;;;;;9.90;7.07;;;34.50;52.90;;;;;;6200496;22;20047;-78
2022/07/20 10:50:40;;;;;;;7.85;7.05;;;34.60;53.00;;;;;;6222484;23;20008;-78
2022/07/20 10:53:12;;;;;;;9.00;7.32;;;34.70;51.50;;;;;;6220541;23;20471;-78
2022/07/20 10:55:37;;;;;;;8.13;6.72;;;34.80;53.00;;;;;;6201065;23;20016;-78
2022/07/20 10:58:23;;;;;;;7.45;6.60;;;35.00;53.70;;;;;;6204760;23;20019;-79
2022/07/20 11:00:55;;;;;;;7.40;6.60;;;35.10;52.60;;;;;;6205229;23;20019;-79
2022/07/20 11:03:30;;;;;;;8.23;6.43;;;35.00;52.80;;;;;;6204829;23;20008;-79
2022/07/20 11:06:14;;;;;;;8.25;6.75;;;35.00;52.80;;;;;;6225611;23;20031;-78
2022/07/20 11:08:56;;;;;;;7.95;6.70;;;34.90;52.00;;;;;;6199441;23;20008;-78
2022/07/20 11:11:31;;;;;;;7.10;6.15;;;35.00;51.90;;;;;;6228422;23;20014;-79
2022/07/20 11:13:58;;;;;;;8.50;5.88;;;35.10;52.30;;;;;;6230483;23;20059;-79
2022/07/20 11:16:25;;;;;;;8.63;6.30;;;35.10;52.40;;;;;;6230509;23;20034;-79
2022/07/20 11:18:52;;;;;;;6.70;6.05;;;35.10;52.30;;;;;;6231054;23;20391;-78
2022/07/20 11:21:27;;;;;;;8.13;5.63;;;35.10;51.80;;;;;;6228542;23;20069;-78
2022/07/20 11:23:53;;;;;;;8.60;6.03;;;35.00;51.20;;;;;;6228327;23;20031;-79
2022/07/20 11:26:21;;;;;;;7.65;6.35;;;34.80;51.50;;;;;;6230641;23;20518;-78
2022/07/20 11:28:55;;;;;;;8.00;5.70;;;34.30;52.20;;;;;;6230308;23;20012;-78
2022/07/20 11:31:23;;;;;;;9.90;6.53;;;34.10;53.20;;;;;;6205525;23;20012;-78
2022/07/20 11:33:51;;;;;;;6.85;5.95;;;34.20;52.70;;;;;;6232032;23;20097;-78
2022/07/20 11:36:20;;;;;;;10.73;6.10;;;34.40;52.30;;;;;;6231609;23;20012;-80
2022/07/20 11:38:51;;;;;;;7.72;5.95;;;34.50;51.80;;;;;;6231538;23;20514;-79
2022/07/20 11:41:21;;;;;;;8.40;6.57;;;34.50;51.70;;;;;;6205730;23;20341;-79
2022/07/20 11:43:50;;;;;;;7.72;6.60;;;34.50;51.50;;;;;;6229987;23;20023;-80
2022/07/20 11:46:25;;;;;;;7.43;6.07;;;34.60;51.80;;;;;;6228306;23;20341;-79
2022/07/20 11:48:55;;;;;;;7.05;6.35;;;34.70;51.80;;;;;;6204110;23;20022;-78
2022/07/20 11:51:21;;;;;;;8.25;6.35;;;34.70;50.90;;;;;;6228436;23;20344;-79
2022/07/20 11:53:46;;;;;;;8.18;6.75;;;34.70;51.40;;;;;;6204104;23;20012;-78
2022/07/20 11:56:18;;;;;;;7.78;6.95;;;34.80;51.90;;;;;;6227192;23;20016;-78
2022/07/20 11:58:47;;;;;;;7.32;6.63;;;34.90;50.60;;;;;;6194193;23;20020;-78
2022/07/20 12:01:19;;;;;;;8.02;6.15;;;34.80;49.60;;;;;;6199971;23;20015;-78
2022/07/20 12:04:05;;;;;;;7.05;5.55;;;34.80;49.70;;;;;;6198967;23;20059;-78
2022/07/20 12:06:34;;;;;;;6.13;5.53;;;34.90;49.80;;;;;;6225183;23;20086;-78
2022/07/20 12:09:12;;;;;;;10.73;6.05;;;34.90;50.40;;;;;;6229127;23;20022;-79
2022/07/20 12:12:07;;;;;;;7.90;5.80;;;35.00;50.90;;;;;;6231217;23;20019;-79
2022/07/20 12:14:40;;;;;;;7.50;6.03;;;35.20;48.70;;;;;;6223809;23;20038;-78
2022/07/20 12:17:35;;;;;;;6.25;5.65;;;35.20;49.10;;;;;;6232608;23;20016;-79
2022/07/20 12:20:01;;;;;;;7.38;6.35;;;35.20;48.30;;;;;;6202436;23;20105;-79
2022/07/20 12:22:32;;;;;;;7.20;6.50;;;35.20;48.80;;;;;;6232267;23;20010;-79
2022/07/20 12:25:03;;;;;;;7.93;7.13;;;35.20;48.30;;;;;;6232456;23;20008;-79
2022/07/20 12:27:31;;;;;;;8.63;7.00;;;35.30;49.00;;;;;;6234180;23;20007;-79
2022/07/20 12:29:58;;;;;;;7.90;6.38;;;35.30;49.10;;;;;;6233297;23;20062;-79
2022/07/20 12:32:33;;;;;;;7.60;5.80;;;35.50;49.70;;;;;;6235411;23;20016;-79
2022/07/20 12:34:59;;;;;;;8.00;5.30;;;35.70;49.20;;;;;;6212605;23;20016;-79
2022/07/20 12:37:48;;;;;;;16.10;5.55;;;35.80;49.10;;;;;;6242205;23;20055;-80
2022/07/20 12:40:34;;;;;;;8.07;5.25;;;36.00;47.40;;;;;;6242393;22;20059;-80
2022/07/20 12:43:00;;;;;;;5.60;4.82;;;36.10;48.80;;;;;;6228951;23;20016;-79
2022/07/20 12:45:26;;;;;;;7.45;4.78;;;36.30;49.00;;;;;;6202793;23;20012;-79
2022/07/20 12:47:51;;;;;;;5.75;4.45;;;36.50;48.50;;;;;;6225757;22;20022;-79
2022/07/20 12:50:17;;;;;;;10.38;4.43;;;36.50;48.60;;;;;;6203599;23;20043;-79
2022/07/20 12:52:43;;;;;;;8.65;4.53;;;36.60;48.80;;;;;;6227423;23;20337;-79
2022/07/20 12:55:09;;;;;;;12.52;4.70;;;36.80;48.70;;;;;;6200101;23;20019;-79
2022/07/20 12:57:35;;;;;;;6.90;4.05;;;36.90;48.80;;;;;;6201554;23;20016;-79
2022/07/20 13:00:01;;;;;;;7.22;3.83;;;36.90;48.10;;;;;;6200202;23;20043;-79
2022/07/20 13:02:26;;;;;;;5.63;3.83;;;36.90;48.00;;;;;;6223012;23;20004;-79
2022/07/20 13:04:52;;;;;;;5.45;3.88;;;36.90;47.50;;;;;;6224450;23;20091;-79
2022/07/20 13:07:18;;;;;;;8.90;4.07;;;36.80;47.00;;;;;;6199599;23;20004;-79
2022/07/20 13:09:43;;;;;;;8.70;4.45;;;36.80;47.50;;;;;;6226065;23;20008;-79
2022/07/20 13:12:09;;;;;;;16.58;5.15;;;36.80;47.20;;;;;;6201584;23;20072;-79
2022/07/20 13:14:34;;;;;;;4.78;3.75;;;36.80;47.60;;;;;;6203403;23;20069;-79
2022/07/20 13:17:02;;;;;;;5.22;3.97;;;36.80;47.70;;;;;;6227293;23;20023;-79
2022/07/20 13:19:28;;;;;;;7.38;3.85;;;36.70;47.80;;;;;;6201599;23;20016;-80
2022/07/20 13:21:53;;;;;;;5.97;3.90;;;36.80;48.70;;;;;;6228544;23;20019;-79
2022/07/20 13:24:19;;;;;;;7.25;4.07;;;36.90;48.20;;;;;;6228992;23;20036;-79
2022/07/20 13:26:46;;;;;;;6.03;4.10;;;36.90;48.20;;;;;;6201834;23;20012;-79
2022/07/20 13:29:12;;;;;;;5.82;4.05;;;37.00;47.70;;;;;;6202274;23;20012;-79
2022/07/20 13:31:39;;;;;;;8.65;4.15;;;37.20;48.00;;;;;;6228931;23;20040;-79
2022/07/20 13:34:05;;;;;;;5.90;3.88;;;37.30;47.90;;;;;;6229491;23;20012;-79